Time;durP1;ratioP1;P1;durP2;ratioP2;P2;SDS_P1;SDS_P2;PMS_P1;PMS_P2;Temp;Humidity;BMP_temperature;BMP_pressure;BME280_temperature;BME280_humidity;BME280_pressure;Samples;Min_cycle;Max_cycle;Signal;HPM_P1;HPM_P2
2022/06/17 00:01:44;;;;;;;6.20;3.88;;;17.90;89.00;;;14.66;90.95;101365.47;5023572;28;20076;-81
2022/06/17 00:04:12;;;;;;;6.35;3.80;;;17.90;89.30;;;14.57;91.65;101369.34;5028917;28;20053;-81
2022/06/17 00:06:44;;;;;;;7.13;3.33;;;17.90;89.50;;;14.56;91.32;101365.69;5031631;28;20068;-81
2022/06/17 00:09:16;;;;;;;7.35;3.35;;;17.90;89.40;;;14.55;91.04;101357.69;5029548;28;20033;-81
2022/06/17 00:11:43;;;;;;;6.25;3.53;;;17.90;89.50;;;14.53;91.31;101359.78;5032102;28;20475;-81
2022/06/17 04:25:56;;;;;;;7.80;4.85;;;15.10;99.90;;;13.91;100.00;101374.63;5128236;27;20401;-79
2022/06/17 04:28:28;;;;;;;9.00;4.75;;;15.80;99.90;;;14.06;100.00;101375.50;5089887;27;20102;-79
2022/06/17 04:30:59;;;;;;;;;;;15.90;99.90;;;14.13;100.00;101375.63;5086126;28;20082;-78
2022/06/17 04:33:32;;;;;;;7.57;4.50;;;16.00;99.90;;;14.18;100.00;101370.41;5092362;28;19959;-79
2022/06/17 04:36:02;;;;;;;8.65;5.03;;;16.20;99.90;;;14.14;100.00;101372.69;5119814;28;20056;-79
2022/06/17 04:38:49;;;;;;;6.95;4.45;;;16.30;99.90;;;14.13;100.00;101372.91;5086830;28;20483;-79
2022/06/17 04:41:36;;;;;;;8.05;5.10;;;16.30;99.90;;;14.20;100.00;101379.28;5106176;28;20044;-79
2022/06/17 04:44:14;;;;;;;7.20;4.47;;;16.40;99.90;;;14.27;100.00;101393.94;5095686;28;20075;-79
2022/06/17 04:46:54;;;;;;;8.88;5.05;;;16.50;99.90;;;14.37;100.00;101394.50;5100562;28;20393;-77
2022/06/17 04:49:54;;;;;;;7.18;5.28;;;16.50;99.90;;;14.51;100.00;101379.13;5099811;28;20056;-77
2022/06/17 04:52:34;;;;;;;8.57;5.05;;;16.70;99.90;;;14.75;100.00;101377.16;5104524;28;20105;-78
2022/06/17 04:55:28;;;;;;;10.90;4.72;;;16.70;99.90;;;15.06;100.00;101376.91;5105471;28;20154;-78
2022/06/17 04:58:09;;;;;;;9.38;4.85;;;16.90;99.90;;;15.39;99.45;101379.16;5105056;28;20044;-78
2022/06/17 05:00:36;;;;;;;5.95;4.28;;;17.00;99.90;;;15.64;99.60;101377.72;5105702;28;20048;-78
2022/06/17 05:03:04;;;;;;;7.05;4.50;;;17.20;99.90;;;15.88;98.10;101363.78;5086177;28;20057;-79
2022/06/17 05:05:48;;;;;;;8.90;4.85;;;17.30;99.90;;;16.09;94.56;101368.38;5097338;28;20039;-79
2022/06/17 05:08:23;;;;;;;9.00;5.30;;;17.40;99.90;;;16.33;93.53;101365.19;5102690;28;20130;-78
2022/06/17 05:10:56;;;;;;;7.50;5.03;;;17.60;99.90;;;16.42;94.04;101360.38;5090702;28;20075;-78
2022/06/17 05:13:33;;;;;;;5.82;4.40;;;17.70;99.90;;;16.46;92.94;101363.56;5102534;28;20059;-78
2022/06/17 05:16:01;;;;;;;7.25;4.80;;;17.90;99.80;;;16.70;93.46;101367.72;5124155;22;20616;-86
2022/06/17 05:18:29;;;;;;;6.90;4.60;;;17.90;99.90;;;16.84;91.09;101365.91;5099977;28;20079;-85
2022/06/17 05:21:18;;;;;;;10.02;4.88;;;18.00;99.00;;;17.02;89.35;101363.44;5083887;28;20044;-86
2022/06/17 05:23:46;;;;;;;8.02;4.65;;;18.10;98.30;;;17.13;88.51;101370.22;5086770;28;20039;-85
2022/06/17 05:26:13;;;;;;;7.90;4.63;;;18.20;98.20;;;17.23;88.27;101361.56;5067392;28;20208;-84
2022/06/17 05:28:42;;;;;;;8.35;4.47;;;18.30;98.10;;;17.27;88.69;101355.47;5051424;28;20045;-82
2022/06/17 05:31:16;;;;;;;8.68;4.47;;;18.30;98.00;;;17.45;90.13;101356.75;5049007;28;20417;-83
2022/06/17 05:33:49;;;;;;;10.30;4.80;;;18.40;98.80;;;17.78;88.94;101351.25;5051845;28;20041;-83
2022/06/17 05:48:54;;;;;;;14.75;4.22;;;18.50;98.70;;;18.00;85.78;101356.59;5156008;27;20393;-84
2022/06/17 05:51:48;;;;;;;9.00;4.47;;;18.80;97.80;;;17.92;88.05;101346.66;5121881;28;20672;-83
2022/06/17 05:54:48;;;;;;;15.85;4.68;;;18.90;98.70;;;17.78;89.44;101351.25;5122598;22;20063;-80
2022/06/17 05:57:24;;;;;;;8.40;4.15;;;18.90;99.10;;;17.81;91.29;101350.84;5068435;28;20123;-80
2022/06/17 06:00:17;;;;;;;9.98;4.32;;;18.90;99.50;;;17.88;87.20;101351.75;5064295;28;20155;-80
2022/06/17 06:02:54;;;;;;;14.27;4.72;;;18.90;97.90;;;18.27;88.60;101346.38;5053341;28;20101;-81
2022/06/17 06:05:32;;;;;;;8.57;4.32;;;19.00;98.60;;;18.58;86.95;101340.13;5063625;28;20051;-80
2022/06/17 06:08:01;;;;;;;8.25;4.10;;;19.10;99.20;;;18.78;82.98;101344.75;5045541;28;20044;-80
2022/06/17 06:10:31;;;;;;;9.82;4.38;;;19.10;97.30;;;18.79;81.89;101350.03;5051999;28;20390;-80
2022/06/17 06:13:04;;;;;;;9.52;4.47;;;19.20;96.60;;;19.07;83.01;101349.69;5055683;28;20041;-80
2022/06/17 06:15:54;;;;;;;9.15;3.67;;;19.30;97.30;;;19.14;83.65;101356.03;5050541;28;20136;-80
2022/06/17 06:18:39;;;;;;;11.82;3.70;;;19.40;98.10;;;19.43;81.78;101353.72;5054539;28;20713;-80
2022/06/17 06:21:20;;;;;;;12.57;4.28;;;19.40;98.00;;;19.81;78.36;101361.13;5055647;28;20047;-80
2022/06/17 06:23:48;;;;;;;7.43;3.78;;;19.60;96.70;;;19.66;77.11;101358.66;5059912;28;20041;-81
2022/06/17 06:26:27;;;;;;;14.13;3.88;;;19.60;95.40;;;19.56;77.87;101360.25;5045559;28;20095;-80
2022/06/17 06:29:07;;;;;;;11.80;3.90;;;19.60;95.30;;;19.68;78.08;101350.16;5064043;28;20069;-80
2022/06/17 06:31:39;;;;;;;12.60;3.85;;;19.70;95.30;;;19.76;79.36;101355.41;5063595;28;20131;-80
2022/06/17 06:34:15;;;;;;;6.28;4.05;;;19.80;96.30;;;19.67;80.15;101348.47;5054853;28;20045;-80
2022/06/17 06:36:46;;;;;;;13.70;4.20;;;19.80;96.30;;;19.44;80.61;101344.41;5058971;28;20046;-80
2022/06/17 06:39:14;;;;;;;11.70;4.28;;;19.90;96.00;;;19.40;82.52;101348.69;5061377;28;20083;-80
2022/06/17 06:41:42;;;;;;;16.25;3.60;;;19.90;96.70;;;19.44;83.15;101343.53;5060455;28;20041;-80
2022/06/17 06:44:09;;;;;;;11.63;3.97;;;19.90;96.80;;;19.62;84.11;101351.06;5065375;28;20235;-80
2022/06/17 06:47:04;;;;;;;14.38;3.67;;;20.00;97.40;;;19.84;80.60;101344.13;5048912;28;20057;-80
2022/06/17 06:49:48;;;;;;;5.88;2.70;;;20.00;96.80;;;19.89;76.66;101357.22;5048848;28;20045;-80
2022/06/17 06:52:17;;;;;;;5.57;2.40;;;20.00;95.60;;;19.96;74.51;101351.66;5048415;28;20119;-80
2022/06/17 06:54:44;;;;;;;6.45;2.50;;;20.10;94.30;;;20.13;74.12;101352.78;5050026;28;20760;-80
2022/06/17 06:57:14;;;;;;;9.15;2.97;;;20.10;93.60;;;20.34;74.55;101354.25;5050295;28;20075;-80
2022/06/17 06:59:42;;;;;;;5.63;2.75;;;20.20;94.10;;;20.52;70.54;101350.63;5050270;28;20041;-80
2022/06/17 07:02:10;;;;;;;6.03;2.38;;;20.30;91.40;;;20.69;70.21;101351.78;5050278;28;20137;-80
2022/06/17 07:04:37;;;;;;;5.68;2.72;;;20.30;91.30;;;20.84;70.09;101353.28;5056616;28;20140;-80
2022/06/17 07:07:05;;;;;;;8.07;2.80;;;20.50;91.40;;;21.06;69.25;101351.69;5057425;28;20180;-80
2022/06/17 07:09:34;;;;;;;7.40;2.17;;;20.60;90.80;;;21.34;68.57;101352.16;5053283;28;20398;-80
2022/06/17 07:12:01;;;;;;;5.50;2.47;;;20.70;90.60;;;21.54;65.87;101351.91;5052221;28;20039;-80
2022/06/17 07:14:28;;;;;;;5.63;2.42;;;20.80;89.50;;;21.71;66.08;101346.50;5048754;28;20072;-80
2022/06/17 07:16:55;;;;;;;4.70;2.70;;;20.90;89.80;;;21.69;64.51;101348.69;5047395;28;20414;-80
2022/06/17 07:19:22;;;;;;;4.50;2.50;;;21.00;88.30;;;21.70;64.41;101345.66;5052539;28;20075;-80
2022/06/17 07:21:51;;;;;;;6.20;2.22;;;21.00;87.90;;;21.73;64.14;101347.13;5060776;28;20045;-80
2022/06/17 07:24:18;;;;;;;5.10;2.35;;;21.10;87.70;;;21.70;62.83;101351.19;5054793;28;20506;-81
2022/06/17 07:26:46;;;;;;;6.18;2.25;;;21.20;86.20;;;21.75;64.93;101347.72;5052077;28;20131;-81
2022/06/17 07:29:14;;;;;;;6.75;2.47;;;21.30;87.70;;;21.75;64.74;101342.19;5040598;28;20055;-81
2022/06/17 07:31:41;;;;;;;6.80;2.50;;;21.30;88.00;;;21.73;63.85;101345.19;5049609;28;20069;-81
2022/06/17 07:34:09;;;;;;;5.15;2.25;;;21.50;86.20;;;21.70;62.34;101345.66;5052234;28;20482;-81
2022/06/17 07:42:08;;;;;;;5.40;2.10;;;21.60;83.90;;;21.94;62.08;101351.22;5047472;28;20098;-81
2022/06/17 07:44:37;;;;;;;4.47;2.20;;;21.70;84.30;;;21.99;63.25;101354.09;5048988;28;20691;-81
2022/06/17 07:47:05;;;;;;;6.75;2.20;;;21.80;85.60;;;22.00;62.88;101348.31;5043504;28;20115;-81
2022/06/17 07:49:32;;;;;;;5.30;2.33;;;21.80;84.50;;;22.06;63.96;101343.75;5047144;28;20048;-81
2022/06/17 07:52:00;;;;;;;5.05;2.35;;;21.90;85.70;;;22.17;62.99;101340.13;5049719;28;20071;-81
2022/06/17 07:54:27;;;;;;;5.50;2.17;;;21.90;85.10;;;22.24;63.51;101338.09;5046637;28;20038;-81
2022/06/17 07:56:54;;;;;;;5.25;2.40;;;21.90;85.70;;;22.30;60.78;101332.69;5049133;28;20405;-81
2022/06/17 07:59:26;;;;;;;8.73;2.20;;;22.00;83.30;;;22.36;60.58;101331.72;5044835;28;20048;-81
2022/06/17 08:01:53;;;;;;;10.07;2.60;;;22.10;83.10;;;22.40;61.54;101338.47;5048198;28;20502;-81
2022/06/17 08:04:22;;;;;;;3.88;2.20;;;22.10;84.30;;;22.47;61.04;101330.84;5031314;28;20049;-81
2022/06/17 08:06:50;;;;;;;4.68;2.15;;;22.10;83.40;;;22.44;59.51;101345.19;5039106;28;20041;-80
2022/06/17 08:09:17;;;;;;;4.13;2.10;;;22.10;81.10;;;22.49;59.05;101342.56;5037547;28;20044;-81
2022/06/17 08:11:45;;;;;;;5.53;2.25;;;22.30;81.30;;;22.58;60.95;101335.53;5045733;28;20037;-81
2022/06/17 08:14:13;;;;;;;7.18;2.30;;;22.40;83.10;;;22.70;59.80;101327.19;5050938;28;20063;-82
2022/06/17 08:16:45;;;;;;;7.85;2.42;;;22.40;82.10;;;22.81;60.50;101328.25;5043389;28;20048;-82
2022/06/17 08:19:12;;;;;;;5.10;2.22;;;22.50;82.60;;;22.80;59.43;101332.09;5049687;28;20040;-81
2022/06/17 08:21:41;;;;;;;4.45;1.92;;;22.50;82.10;;;22.81;57.28;101331.03;5042284;28;20099;-82
2022/06/17 08:24:09;;;;;;;7.78;2.15;;;22.50;80.00;;;22.87;58.86;101327.25;5036011;28;20129;-84
2022/06/17 08:26:36;;;;;;;5.05;2.95;;;22.60;81.50;;;22.89;56.99;101325.06;5046112;28;20045;-82
2022/06/17 08:29:08;;;;;;;4.35;2.40;;;22.60;79.40;;;22.98;56.97;101334.69;5043497;28;20052;-85
2022/06/17 08:31:35;;;;;;;6.03;2.50;;;22.70;79.40;;;22.99;54.92;101325.25;5048748;28;20052;-82
2022/06/17 08:34:03;;;;;;;7.78;2.65;;;22.70;77.70;;;23.02;54.79;101323.94;5042662;28;20120;-81
2022/06/17 08:36:33;;;;;;;7.03;2.50;;;22.70;77.50;;;23.01;53.96;101327.78;5036946;28;20051;-81
2022/06/17 08:39:08;;;;;;;6.85;2.70;;;22.80;76.10;;;22.99;54.36;101322.47;5049592;28;20045;-80
2022/06/17 08:41:50;;;;;;;7.03;2.50;;;22.70;76.80;;;22.97;56.19;101316.34;5048954;28;20116;-81
2022/06/17 08:44:38;;;;;;;6.90;2.60;;;22.70;79.20;;;23.09;55.17;101307.16;5050661;28;20518;-82
2022/06/17 08:47:35;;;;;;;7.90;2.28;;;22.70;78.10;;;23.17;55.64;101310.38;5044846;28;20073;-82
2022/06/17 08:50:44;;;;;;;5.38;2.10;;;22.80;78.70;;;23.28;54.86;101308.59;5048119;28;20098;-80
2022/06/17 08:53:51;;;;;;;10.18;2.45;;;22.80;78.30;;;23.30;55.72;101319.47;5024433;28;20065;-81
2022/06/17 08:56:28;;;;;;;5.85;2.50;;;22.90;79.40;;;23.35;54.22;101308.47;5053026;28;20040;-80
2022/06/17 08:59:13;;;;;;;5.90;2.28;;;22.90;77.20;;;23.35;52.60;101312.06;5064270;28;20486;-80
2022/06/17 09:01:49;;;;;;;5.38;2.45;;;22.90;75.40;;;23.32;52.33;101309.81;5049403;28;20056;-81
2022/06/17 09:04:36;;;;;;;7.50;2.72;;;22.90;75.00;;;23.25;52.49;101306.34;5047146;28;20128;-81
2022/06/17 09:07:19;;;;;;;7.80;2.78;;;22.90;74.90;;;23.26;52.91;101299.69;5041358;28;20041;-81
2022/06/17 09:10:17;;;;;;;6.30;2.65;;;23.00;75.20;;;23.28;54.99;101296.66;5049061;28;20076;-80
2022/06/17 09:13:02;;;;;;;7.32;2.40;;;23.00;77.50;;;23.34;55.15;101296.50;5043833;28;20057;-81
2022/06/17 09:15:38;;;;;;;5.50;2.10;;;23.10;77.30;;;23.40;51.62;101301.06;5030238;28;20042;-81
2022/06/17 09:18:22;;;;;;;3.75;2.20;;;23.20;74.30;;;23.50;56.14;101300.38;5038599;28;20494;-81
2022/06/17 09:21:04;;;;;;;6.40;2.33;;;23.20;78.20;;;23.57;53.74;101291.88;5043881;28;20051;-81
2022/06/17 09:23:38;;;;;;;8.48;2.30;;;23.20;76.50;;;23.43;52.95;101294.16;5038097;28;20076;-81
2022/06/17 09:26:17;;;;;;;4.40;2.20;;;23.20;75.20;;;23.42;53.62;101290.53;5048262;28;20060;-81
2022/06/17 09:28:54;;;;;;;4.72;2.20;;;23.30;75.60;;;23.43;52.00;101281.09;5042478;28;20049;-80
2022/06/17 09:31:31;;;;;;;6.07;2.28;;;23.30;74.10;;;23.41;53.37;101277.72;5042278;28;20076;-81
2022/06/17 09:34:07;;;;;;;6.40;2.08;;;23.30;74.80;;;23.40;52.89;101281.63;5045007;28;20405;-81
2022/06/17 09:36:40;;;;;;;5.47;2.33;;;23.30;74.40;;;23.38;54.59;101285.72;5041570;28;20085;-81
2022/06/17 09:39:13;;;;;;;7.30;2.20;;;23.30;75.50;;;23.39;53.47;101284.63;5036039;28;20065;-81
2022/06/17 09:41:46;;;;;;;4.95;2.10;;;23.40;74.80;;;23.46;53.44;101278.94;5038087;28;20515;-81
2022/06/17 09:44:20;;;;;;;5.35;2.25;;;23.50;75.00;;;23.48;53.26;101276.75;5049234;28;20048;-81
2022/06/17 09:46:53;;;;;;;3.60;2.13;;;23.50;74.50;;;23.52;54.84;101289.03;5039076;28;20073;-81
2022/06/17 09:49:33;;;;;;;4.43;2.05;;;23.50;75.50;;;23.56;52.39;101276.31;5041236;28;20470;-81
2022/06/17 09:52:07;;;;;;;5.93;1.90;;;23.60;73.80;;;23.47;49.20;101273.09;5029874;28;20038;-79
2022/06/17 09:54:44;;;;;;;4.88;1.70;;;23.60;70.10;;;23.47;51.66;101283.38;5041371;28;20049;-81
2022/06/17 09:57:20;;;;;;;7.30;2.17;;;23.60;72.30;;;23.48;52.69;101280.34;5041702;28;20155;-80
2022/06/17 09:59:52;;;;;;;5.57;1.83;;;23.60;73.00;;;23.56;54.21;101273.53;5048999;28;20092;-80
2022/06/17 10:02:24;;;;;;;4.50;1.95;;;23.70;74.80;;;23.57;54.19;101269.63;5038510;28;20470;-82
2022/06/17 10:04:52;;;;;;;4.90;2.05;;;23.70;74.90;;;23.60;53.60;101269.97;5042652;28;20041;-83
2022/06/17 10:07:28;;;;;;;4.28;1.98;;;23.70;74.20;;;23.63;54.14;101268.66;5041499;28;20041;-82
2022/06/17 10:10:16;;;;;;;3.60;1.80;;;23.80;74.20;;;23.60;50.98;101267.19;5049230;28;20120;-82
2022/06/17 10:13:02;;;;;;;6.38;1.77;;;23.80;70.90;;;23.58;52.09;101265.78;5036453;28;20124;-82
2022/06/17 10:15:40;;;;;;;4.60;1.90;;;23.80;72.10;;;23.64;55.43;101264.75;5037012;28;20639;-82
2022/06/17 10:18:33;;;;;;;6.82;2.20;;;23.90;75.10;;;23.63;53.29;101268.66;5045945;28;20854;-83
2022/06/17 10:21:23;;;;;;;4.53;2.03;;;23.90;74.40;;;23.67;53.66;101264.25;5046143;28;20444;-82
2022/06/17 10:24:02;;;;;;;5.72;2.00;;;23.90;73.80;;;23.69;52.16;101258.47;5044381;28;20391;-81
2022/06/17 10:26:51;;;;;;;4.72;2.15;;;23.90;71.90;;;23.69;53.01;101255.69;5051143;28;20041;-81
2022/06/17 10:30:01;;;;;;;4.95;2.10;;;23.90;72.90;;;23.64;49.73;101239.75;5046872;28;20037;-81
2022/06/17 10:32:30;;;;;;;7.10;2.03;;;23.90;69.50;;;23.67;51.49;101250.38;5046966;28;20045;-83
2022/06/17 10:35:01;;;;;;;5.65;2.03;;;24.00;71.30;;;23.76;53.84;101247.97;5049389;28;20045;-83
2022/06/17 10:37:33;;;;;;;5.22;2.17;;;24.00;73.80;;;23.85;52.76;101251.22;5044635;28;20566;-83
2022/06/17 10:40:01;;;;;;;5.85;1.95;;;24.10;72.40;;;23.87;50.89;101257.34;5049273;28;20033;-82
2022/06/17 10:42:30;;;;;;;6.20;2.30;;;24.10;71.10;;;23.90;54.39;101257.69;5045816;28;20075;-83
2022/06/17 10:45:01;;;;;;;10.52;2.33;;;24.00;74.70;;;24.00;50.14;101251.44;5048056;28;20119;-83
2022/06/17 10:47:34;;;;;;;;;;;24.20;70.70;;;24.03;52.49;101252.84;5042443;28;20469;-83
2022/06/17 10:50:11;;;;;;;6.10;2.10;;;24.20;72.80;;;24.04;54.20;101252.59;5050400;28;19920;-83
2022/06/17 10:52:44;;;;;;;5.40;1.85;;;24.20;74.20;;;24.09;55.76;101241.56;5044953;28;20120;-83
2022/06/17 10:55:20;;;;;;;4.82;2.05;;;24.30;76.70;;;24.17;54.18;101252.22;5046834;28;20617;-83
2022/06/17 10:58:16;;;;;;;4.13;1.90;;;24.30;74.50;;;24.30;52.23;101255.72;5043327;28;20051;-83
2022/06/17 11:00:55;;;;;;;6.53;1.90;;;24.40;72.60;;;24.25;53.38;101253.72;5041779;28;20403;-83
2022/06/17 11:03:27;;;;;;;6.47;1.83;;;24.40;73.30;;;24.30;54.33;101256.56;5045967;28;20482;-83
2022/06/17 11:06:04;;;;;;;4.72;1.77;;;24.40;74.10;;;24.32;49.62;101246.03;5046112;28;20491;-83
2022/06/17 11:08:38;;;;;;;3.90;1.80;;;24.50;71.10;;;24.30;52.89;101250.16;5052078;28;20490;-83
2022/06/17 11:13:56;;;;;;;5.80;1.50;;;24.60;71.30;;;24.26;49.37;101260.13;5046377;28;20041;-83
2022/06/17 11:16:28;;;;;;;3.10;1.58;;;24.60;68.30;;;24.36;52.13;101254.69;5046292;28;20087;-83
2022/06/17 11:19:01;;;;;;;5.45;1.85;;;24.50;72.00;;;24.45;50.01;101257.88;5040043;28;20044;-83
2022/06/17 11:21:35;;;;;;;3.72;1.83;;;24.50;69.70;;;24.48;51.61;101249.00;5044572;28;20124;-83
2022/06/17 11:24:05;;;;;;;3.97;1.73;;;24.60;71.90;;;24.52;52.35;101242.69;5050690;28;20039;-83
2022/06/17 11:26:35;;;;;;;3.45;1.92;;;24.60;72.50;;;24.60;51.83;101249.75;5046870;28;20069;-83
2022/06/17 11:29:18;;;;;;;4.57;1.97;;;24.60;71.70;;;24.58;50.31;101240.81;5049503;28;20037;-83
2022/06/17 11:31:49;;;;;;;3.20;1.60;;;24.70;70.20;;;24.63;51.71;101231.66;5046022;28;20297;-83
2022/06/17 11:34:25;;;;;;;7.03;1.80;;;24.70;72.00;;;24.65;50.30;101235.03;5043618;28;20072;-83
2022/06/17 11:37:14;;;;;;;2.65;1.42;;;24.70;70.30;;;24.70;50.69;101235.09;5040488;28;20124;-84
2022/06/17 11:39:41;;;;;;;3.85;1.30;;;24.70;70.40;;;24.70;49.27;101232.31;5049465;28;20486;-83
2022/06/17 11:42:17;;;;;;;7.85;1.75;;;24.70;69.20;;;24.75;49.75;101229.56;5051666;28;20112;-84
2022/06/17 11:44:57;;;;;;;3.63;1.67;;;24.70;69.40;;;24.75;50.47;101226.78;5043859;28;20029;-83
2022/06/17 11:47:28;;;;;;;3.78;1.55;;;24.70;71.00;;;24.85;51.59;101223.28;5049069;28;20049;-83
2022/06/17 11:50:01;;;;;;;4.30;1.60;;;24.70;72.30;;;24.89;47.02;101211.34;5045308;28;20029;-83
2022/06/17 11:52:33;;;;;;;3.92;1.50;;;24.70;67.00;;;24.91;48.60;101211.09;5044926;28;20053;-83
2022/06/17 11:55:07;;;;;;;3.63;1.42;;;24.80;69.00;;;25.04;48.54;101212.59;5063170;22;20049;-92
2022/06/17 11:57:38;;;;;;;6.80;1.95;;;24.80;68.90;;;25.09;48.59;101207.06;5050894;28;20474;-90
2022/06/17 12:00:23;;;;;;;4.65;1.70;;;24.90;68.70;;;25.10;49.18;101200.41;5042271;28;20069;-91
2022/06/17 12:02:56;;;;;;;3.85;1.70;;;24.90;69.60;;;25.02;48.53;101195.28;5022619;28;20041;-89
2022/06/17 12:05:27;;;;;;;5.95;1.70;;;24.90;68.70;;;25.13;47.79;101189.56;5042832;28;20483;-90
2022/06/17 12:08:01;;;;;;;6.97;1.73;;;25.00;68.80;;;25.22;48.87;101194.63;5047479;28;20127;-91
2022/06/17 12:10:42;;;;;;;3.80;1.90;;;25.00;69.60;;;25.18;48.08;101192.38;5022487;28;20136;-91
2022/06/17 12:13:24;;;;;;;4.47;1.55;;;25.10;68.20;;;25.13;46.99;101192.34;5043882;28;20045;-91
2022/06/17 12:16:02;;;;;;;2.92;1.20;;;25.10;66.20;;;25.11;46.65;101188.13;5029599;28;20045;-91
2022/06/17 12:18:35;;;;;;;5.43;1.73;;;25.10;65.90;;;25.02;45.27;101189.72;5042734;28;20133;-91
2022/06/17 12:21:18;;;;;;;3.22;1.40;;;25.10;63.20;;;25.04;47.65;101173.63;5037697;28;20037;-91
2022/06/17 12:23:53;;;;;;;4.07;1.40;;;25.20;66.80;;;24.94;46.18;101172.41;5038844;28;20057;-86
2022/06/17 12:26:26;;;;;;;4.75;1.60;;;25.20;63.40;;;24.69;48.83;101174.94;5048610;28;20069;-85
2022/06/17 12:29:02;;;;;;;5.10;1.70;;;25.10;67.80;;;24.62;45.08;101157.59;5045632;28;20873;-87
2022/06/17 12:31:43;;;;;;;8.40;1.60;;;25.10;62.80;;;24.71;47.44;101164.38;5042268;28;20037;-87
2022/06/17 12:34:25;;;;;;;3.55;1.83;;;25.10;65.50;;;24.70;46.24;101165.50;5041205;28;20063;-85
2022/06/17 12:36:56;;;;;;;3.58;1.55;;;25.10;64.40;;;24.73;47.29;101154.69;5042903;28;20059;-87
2022/06/17 12:39:34;;;;;;;4.05;1.60;;;25.10;66.00;;;24.89;49.23;101160.38;5048519;28;20547;-87
2022/06/17 12:42:07;;;;;;;5.22;1.52;;;25.10;68.60;;;24.87;47.85;101163.44;5041848;28;20044;-88
2022/06/17 12:44:52;;;;;;;4.50;1.40;;;25.10;66.90;;;24.90;44.24;101165.69;5040309;28;20502;-87
2022/06/17 12:47:30;;;;;;;2.78;1.20;;;25.10;62.40;;;24.83;44.55;101159.50;5024974;28;20045;-87
2022/06/17 12:53:18;;;;;;;3.80;1.40;;;25.10;62.50;;;24.63;43.33;101153.72;5039111;28;20037;-88
2022/06/17 12:56:09;;;;;;;3.78;1.50;;;25.10;60.80;;;24.62;44.24;101146.47;5044845;28;20754;-88
2022/06/17 12:59:11;;;;;;;7.40;1.60;;;25.10;61.30;;;24.62;45.64;101143.69;5047022;28;20458;-88
2022/06/17 13:01:43;;;;;;;5.35;1.58;;;25.10;63.90;;;24.65;42.95;101145.97;5041022;28;20109;-87
2022/06/17 13:04:30;;;;;;;3.25;1.70;;;25.10;60.00;;;24.58;45.59;101146.19;5047943;28;20091;-87
2022/06/17 13:07:15;;;;;;;5.55;1.50;;;25.10;63.20;;;24.48;48.58;101143.25;5048849;28;20041;-85
2022/06/17 13:10:39;;;;;;;4.15;1.58;;;25.10;66.30;;;24.45;45.34;101130.72;5043307;28;20083;-86
2022/06/17 13:12:50;;;;;;;5.78;1.50;;;25.00;62.80;;;24.49;45.57;101128.25;5042911;28;20132;-86
2022/06/17 13:15:21;;;;;;;;;;;25.00;63.10;;;24.50;44.58;101119.63;5040091;28;20106;-89
2022/06/17 13:17:57;;;;;;;3.60;1.60;;;25.00;62.00;;;24.50;47.04;101114.06;5047224;28;20489;-86
2022/06/17 13:20:32;;;;;;;3.65;1.67;;;25.00;65.20;;;24.51;47.87;101118.56;5041041;28;20129;-87
2022/06/17 13:23:08;;;;;;;8.85;2.03;;;25.00;65.50;;;24.52;48.68;101124.94;5040378;28;20398;-88
2022/06/17 13:25:42;;;;;;;4.60;1.77;;;25.00;67.00;;;24.61;49.37;101117.81;5038662;28;20045;-88
2022/06/17 13:28:20;;;;;;;3.47;1.50;;;25.10;67.60;;;24.70;48.50;101105.09;5048926;28;20067;-88
2022/06/17 13:30:54;;;;;;;4.85;2.00;;;25.00;67.00;;;24.67;45.70;101102.00;5030307;28;20114;-88
2022/06/17 13:33:28;;;;;;;4.82;1.88;;;25.10;63.60;;;24.66;48.48;101108.69;5037770;28;20037;-88
2022/06/17 13:36:03;;;;;;;3.75;1.70;;;25.10;66.70;;;24.73;48.14;101101.78;5028997;28;20084;-88
2022/06/17 13:38:35;;;;;;;5.50;1.80;;;25.10;67.00;;;24.69;46.27;101100.63;5043301;28;20053;-89
2022/06/17 13:41:11;;;;;;;2.90;1.35;;;25.10;64.50;;;24.61;47.87;101103.06;5044558;28;20122;-88
2022/06/17 13:43:45;;;;;;;6.10;1.90;;;25.10;65.90;;;24.65;46.02;101105.03;5040622;28;20053;-89
2022/06/17 13:46:20;;;;;;;3.85;1.52;;;25.10;64.30;;;24.72;46.96;101107.63;5038874;28;20033;-88
2022/06/17 13:48:55;;;;;;;4.55;1.40;;;25.10;64.40;;;24.70;45.90;101093.13;5027992;28;20132;-89
2022/06/17 13:51:38;;;;;;;3.55;1.40;;;25.10;63.90;;;24.70;45.32;101087.56;5038416;28;20140;-88
2022/06/17 13:54:18;;;;;;;3.60;1.30;;;25.10;63.10;;;24.76;43.66;101092.88;5040266;28;20076;-89
2022/06/17 13:57:01;;;;;;;3.38;1.35;;;25.10;61.40;;;24.86;41.78;101097.69;5027670;28;20124;-89
2022/06/17 13:59:37;;;;;;;3.90;1.45;;;25.10;59.40;;;24.88;43.61;101095.47;5025536;28;20068;-88
2022/06/17 14:02:23;;;;;;;3.75;1.40;;;25.10;61.00;;;24.90;42.61;101087.72;5045398;28;20514;-89
2022/06/17 14:05:32;;;;;;;5.63;1.27;;;25.10;60.00;;;24.92;42.69;101077.16;5046418;28;20075;-89
2022/06/17 14:08:16;;;;;;;4.80;1.48;;;25.10;60.10;;;24.87;42.14;101071.53;5048813;28;20037;-88
2022/06/17 14:13:47;;;;;;;6.15;1.60;;;25.10;59.20;;;24.98;40.99;101067.72;5045983;28;20060;-87
2022/06/17 14:16:30;;;;;;;4.00;1.42;;;25.20;58.50;;;24.96;42.82;101063.53;5052858;28;20039;-89
2022/06/17 14:19:03;;;;;;;5.47;1.55;;;25.10;59.90;;;24.93;40.34;101069.63;5052982;28;20115;-88
2022/06/17 14:21:47;;;;;;;3.75;1.42;;;25.10;57.40;;;24.99;40.73;101071.34;5049098;28;20371;-88
2022/06/17 14:25:13;;;;;;;2.38;1.30;;;25.20;57.90;;;24.97;40.90;101068.81;5041119;28;20048;-89
2022/06/17 14:28:01;;;;;;;6.00;1.80;;;25.20;57.90;;;24.98;42.33;101064.94;5036238;28;20076;-87
2022/06/17 14:30:42;;;;;;;3.13;1.30;;;25.20;59.40;;;24.97;43.84;101070.78;5041590;28;20049;-89
2022/06/17 14:33:39;;;;;;;7.03;2.13;;;25.20;61.00;;;24.91;42.12;101069.06;5043644;28;20124;-89
2022/06/17 14:36:19;;;;;;;4.68;1.70;;;25.20;59.70;;;24.89;42.98;101062.94;5044029;28;20049;-89
2022/06/17 14:39:03;;;;;;;5.03;1.80;;;25.20;60.60;;;24.81;45.91;101055.91;5043676;28;20058;-87
2022/06/17 14:44:29;;;;;;;4.95;1.63;;;25.10;62.40;;;24.79;43.52;101052.56;5023832;28;20136;-82
2022/06/17 14:47:36;;;;;;;5.18;1.73;;;25.20;61.00;;;24.78;43.93;101048.91;5044843;28;20130;-82
2022/06/17 14:50:24;;;;;;;4.75;1.70;;;25.20;61.30;;;24.85;43.75;101045.09;5034852;28;20045;-81
2022/06/17 14:53:24;;;;;;;3.83;1.73;;;25.20;61.00;;;24.84;44.83;101047.00;5046073;28;20140;-81
2022/06/17 14:56:40;;;;;;;4.47;1.90;;;25.20;61.80;;;24.82;45.00;101040.03;5038114;28;20033;-87
2022/06/17 14:59:19;;;;;;;3.58;1.67;;;25.20;62.00;;;24.81;44.93;101039.22;5033693;28;20045;-84
2022/06/17 15:01:50;;;;;;;3.05;1.60;;;25.20;62.20;;;24.85;45.14;101034.78;5047865;28;20042;-78
2022/06/17 15:04:34;;;;;;;6.00;1.65;;;25.20;62.60;;;24.86;44.87;101022.53;5048813;28;20073;-78
2022/06/17 15:07:16;;;;;;;9.40;1.88;;;25.20;62.20;;;24.89;45.32;101021.16;5033802;28;20127;-78
2022/06/17 15:09:54;;;;;;;4.47;1.77;;;25.20;62.60;;;24.92;45.02;101021.47;5028036;28;20049;-78
2022/06/17 15:12:30;;;;;;;3.28;1.60;;;25.20;63.00;;;24.94;43.17;101021.19;5032326;28;20080;-78
2022/06/17 15:15:06;;;;;;;8.48;2.13;;;25.10;61.00;;;24.95;42.72;101020.91;5028069;28;20058;-78
2022/06/17 15:17:40;;;;;;;5.68;1.60;;;25.20;60.00;;;24.92;44.24;101017.81;5045095;28;20079;-78
2022/06/17 15:20:15;;;;;;;6.78;1.67;;;25.20;61.80;;;24.92;44.93;101012.25;5038993;28;20444;-78
2022/06/17 15:23:08;;;;;;;7.20;2.13;;;25.10;62.50;;;24.92;45.77;101018.69;5047953;28;20399;-78
2022/06/17 15:25:55;;;;;;;5.00;1.77;;;25.20;64.10;;;24.85;47.48;101018.06;5046823;28;20123;-78
2022/06/17 15:28:31;;;;;;;5.13;1.55;;;25.10;65.60;;;24.84;46.54;101010.81;5038249;28;20120;-78
2022/06/17 15:31:06;;;;;;;9.05;1.45;;;25.10;65.10;;;24.83;45.93;101017.50;5042538;28;20402;-78
2022/06/17 15:33:38;;;;;;;3.13;1.70;;;25.00;64.40;;;24.83;46.18;101006.38;5032218;28;20048;-78
2022/06/17 15:36:06;;;;;;;5.45;1.73;;;25.00;65.00;;;24.78;48.16;100996.03;5036609;28;20046;-78